createdAt,value
2022-07-25T00:02:23.134Z,4.00
2022-07-25T00:04:52.408Z,4.40
2022-07-25T00:07:21.425Z,4.20
2022-07-25T00:09:50.538Z,4.50
2022-07-25T00:12:24.662Z,4.20
2022-07-25T00:14:57.849Z,4.60
2022-07-25T00:17:27.166Z,3.90
2022-07-25T00:20:00.825Z,4.30
2022-07-25T00:22:32.499Z,4.40
2022-07-25T00:25:10.841Z,4.40
2022-07-25T00:27:41.186Z,4.40
2022-07-25T00:30:29.216Z,4.40
2022-07-25T00:33:00.344Z,4.90
2022-07-25T00:35:33.894Z,4.30
2022-07-25T00:38:05.401Z,5.20
2022-07-25T00:40:37.697Z,5.00
2022-07-25T00:43:07.544Z,5.10
2022-07-25T00:45:40.299Z,5.50
2022-07-25T00:48:09.431Z,5.40
2022-07-25T00:50:38.519Z,4.60
2022-07-25T00:53:07.665Z,4.80
2022-07-25T00:55:37.551Z,5.30
2022-07-25T00:58:08.177Z,4.90
2022-07-25T01:00:37.390Z,4.70
2022-07-25T01:03:08.135Z,4.90
2022-07-25T01:05:38.835Z,4.90
2022-07-25T01:08:09.323Z,5.10
2022-07-25T01:13:12.003Z,4.60
2022-07-25T01:15:47.936Z,5.10
2022-07-25T01:18:24.357Z,5.20
2022-07-25T01:21:01.552Z,5.60
2022-07-25T01:23:30.660Z,5.00
2022-07-25T01:25:59.892Z,5.20
2022-07-25T01:28:29.761Z,5.10
2022-07-25T01:30:58.976Z,5.10
2022-07-25T01:33:30.069Z,6.20
2022-07-25T01:36:01.875Z,4.90
2022-07-25T01:38:30.866Z,6.10
2022-07-25T01:41:00.895Z,4.80
2022-07-25T01:43:32.596Z,5.80
2022-07-25T01:46:06.833Z,5.00
2022-07-25T01:48:39.729Z,5.50
2022-07-25T01:51:13.172Z,5.30
2022-07-25T01:53:43.637Z,5.70
2022-07-25T01:56:22.394Z,5.70
2022-07-25T01:58:53.339Z,5.60
2022-07-25T02:01:25.622Z,5.70
2022-07-25T02:04:00.783Z,5.30
2022-07-25T02:06:30.353Z,5.80
2022-07-25T02:11:32.837Z,5.30
2022-07-25T02:14:13.332Z,6.10
2022-07-25T02:16:42.417Z,5.70
2022-07-25T02:19:13.234Z,5.60
2022-07-25T02:21:46.607Z,5.60
2022-07-25T02:24:37.451Z,5.00
2022-07-25T02:27:06.585Z,5.30
2022-07-25T02:29:39.475Z,5.60
2022-07-25T02:32:10.845Z,5.80
2022-07-25T02:34:40.031Z,4.70
2022-07-25T02:37:09.027Z,5.30
2022-07-25T02:39:37.956Z,6.20
2022-07-25T02:42:07.653Z,6.50
2022-07-25T02:44:36.637Z,5.60
2022-07-25T02:47:10.037Z,5.60
2022-07-25T02:49:41.436Z,5.40
2022-07-25T02:52:11.632Z,4.80
2022-07-25T02:54:40.760Z,5.20
2022-07-25T02:57:09.827Z,5.50
2022-07-25T02:59:39.015Z,5.50
2022-07-25T03:02:10.604Z,6.40
2022-07-25T03:04:39.613Z,5.90
2022-07-25T03:07:08.751Z,4.90
2022-07-25T03:09:38.240Z,5.30
2022-07-25T03:15:00.871Z,5.30
2022-07-25T03:17:31.562Z,5.40
2022-07-25T03:20:00.715Z,5.70
2022-07-25T03:22:36.892Z,5.10
2022-07-25T03:25:15.858Z,5.10
2022-07-25T03:27:52.929Z,5.20
2022-07-25T03:30:22.363Z,4.90
2022-07-25T03:32:51.351Z,5.20
2022-07-25T03:35:20.413Z,5.10
2022-07-25T03:37:49.489Z,4.40
2022-07-25T03:40:28.260Z,6.10
2022-07-25T03:43:01.382Z,5.30
2022-07-25T03:45:31.696Z,5.90
2022-07-25T03:48:20.613Z,4.80
2022-07-25T03:50:49.638Z,4.50
2022-07-25T03:53:25.084Z,4.60
2022-07-25T03:55:59.284Z,5.50
2022-07-25T03:58:34.443Z,5.20
2022-07-25T04:01:06.096Z,5.70
2022-07-25T04:03:42.238Z,6.30
2022-07-25T04:06:16.551Z,4.50
2022-07-25T04:08:45.982Z,4.80
2022-07-25T04:11:14.830Z,4.70
2022-07-25T04:13:45.813Z,4.80
2022-07-25T04:16:22.028Z,5.30
2022-07-25T04:18:52.229Z,4.80
2022-07-25T04:21:23.875Z,4.70
2022-07-25T04:23:53.494Z,5.70
2022-07-25T04:26:25.194Z,5.40
2022-07-25T04:28:54.269Z,4.90
2022-07-25T04:31:26.085Z,4.70
2022-07-25T04:33:55.349Z,6.10
2022-07-25T04:36:24.522Z,4.10
2022-07-25T04:39:02.907Z,4.70
2022-07-25T04:41:39.695Z,4.90
2022-07-25T04:44:16.380Z,4.90
2022-07-25T04:46:45.871Z,4.90
2022-07-25T04:49:31.695Z,6.40
2022-07-25T04:52:03.016Z,4.60
2022-07-25T04:57:09.212Z,5.10
2022-07-25T04:59:38.666Z,5.60
2022-07-25T05:02:08.893Z,6.30
2022-07-25T05:04:43.359Z,4.80
2022-07-25T05:07:14.058Z,5.40
2022-07-25T05:09:43.134Z,5.50
2022-07-25T05:12:12.492Z,5.40
2022-07-25T05:14:42.788Z,6.40
2022-07-25T05:17:13.758Z,5.70
2022-07-25T05:19:47.448Z,5.70
2022-07-25T05:22:29.116Z,5.40
2022-07-25T05:25:13.866Z,4.60
2022-07-25T05:27:50.639Z,3.70
2022-07-25T05:30:27.144Z,4.20
2022-07-25T05:33:01.790Z,3.90
2022-07-25T05:35:41.725Z,4.00
2022-07-25T05:38:15.130Z,3.50
2022-07-25T05:40:55.934Z,4.10
2022-07-25T05:43:35.996Z,3.70
2022-07-25T05:46:19.862Z,3.40
2022-07-25T05:48:54.744Z,4.10
2022-07-25T05:51:27.701Z,4.20
2022-07-25T05:54:08.822Z,4.80
2022-07-25T05:56:38.178Z,4.90
2022-07-25T05:59:09.596Z,5.30
2022-07-25T06:01:41.401Z,5.40
2022-07-25T06:04:10.412Z,5.20
2022-07-25T06:06:39.622Z,5.00
2022-07-25T06:09:23.378Z,4.50
2022-07-25T06:12:00.598Z,5.30
2022-07-25T06:14:41.012Z,4.50
2022-07-25T06:17:25.140Z,4.40
2022-07-25T06:20:00.668Z,3.70
2022-07-25T06:23:06.797Z,2.80
2022-07-25T06:25:50.162Z,3.20
2022-07-25T06:28:32.412Z,2.60
2022-07-25T06:31:04.543Z,2.80
2022-07-25T06:33:36.539Z,2.90
2022-07-25T06:36:32.217Z,2.90
2022-07-25T06:39:08.273Z,2.20
2022-07-25T06:41:41.391Z,2.40
2022-07-25T06:44:16.807Z,2.70
2022-07-25T06:46:55.920Z,2.50
2022-07-25T06:49:35.482Z,2.30
2022-07-25T06:52:11.110Z,2.80
2022-07-25T06:54:42.766Z,2.90
2022-07-25T06:57:13.043Z,2.60
2022-07-25T06:59:50.872Z,2.60
2022-07-25T07:02:24.273Z,2.90
2022-07-25T07:05:02.658Z,2.30
2022-07-25T07:07:37.412Z,2.60
2022-07-25T07:10:08.461Z,2.60
2022-07-25T07:12:42.890Z,3.10
2022-07-25T07:15:17.176Z,2.70
2022-07-25T07:17:52.372Z,2.10
2022-07-25T07:20:44.013Z,1.80
2022-07-25T07:23:18.558Z,3.10
2022-07-25T07:26:06.701Z,2.30
2022-07-25T07:29:08.490Z,1.60
2022-07-25T07:31:38.646Z,1.70
2022-07-25T07:34:28.457Z,1.80
2022-07-25T07:37:09.791Z,2.20
2022-07-25T07:39:39.026Z,1.70
2022-07-25T07:42:09.856Z,1.70
2022-07-25T07:44:40.990Z,1.60
2022-07-25T07:47:51.385Z,9.30
2022-07-25T07:50:36.309Z,1.70
2022-07-25T07:53:09.055Z,1.40
2022-07-25T07:55:46.958Z,1.40
2022-07-25T07:58:41.140Z,1.40
2022-07-25T08:01:25.252Z,1.30
2022-07-25T08:04:11.427Z,1.50
2022-07-25T08:06:48.881Z,1.50
2022-07-25T08:09:31.922Z,1.50
2022-07-25T08:12:19.491Z,1.50
2022-07-25T08:14:53.878Z,1.10
2022-07-25T08:17:28.775Z,1.50
2022-07-25T08:20:36.742Z,1.60
2022-07-25T08:23:11.966Z,1.90
2022-07-25T08:25:42.377Z,2.90
2022-07-25T08:28:21.142Z,1.50
2022-07-25T08:31:01.742Z,2.30
2022-07-25T08:33:48.041Z,1.60
2022-07-25T08:36:22.962Z,1.30
2022-07-25T08:38:52.148Z,1.80
2022-07-25T08:41:24.829Z,1.30
2022-07-25T08:43:59.329Z,0.90
2022-07-25T08:46:32.884Z,1.10
2022-07-25T08:49:04.591Z,1.20
2022-07-25T08:51:37.466Z,1.10
2022-07-25T08:54:13.317Z,1.20
2022-07-25T08:56:46.984Z,1.50
2022-07-25T08:59:18.633Z,1.30
2022-07-25T09:01:54.777Z,1.60
2022-07-25T09:04:30.609Z,1.40
2022-07-25T09:07:08.414Z,1.40
2022-07-25T09:09:44.646Z,1.50
2022-07-25T09:12:29.590Z,1.50
2022-07-25T09:15:43.220Z,1.40
2022-07-25T09:18:22.866Z,1.30
2022-07-25T09:21:03.449Z,1.10
2022-07-25T09:23:41.569Z,1.70
2022-07-25T09:26:15.489Z,1.40
2022-07-25T09:28:51.353Z,1.10
2022-07-25T09:31:32.267Z,1.10
2022-07-25T09:34:08.523Z,1.20
2022-07-25T09:36:40.132Z,1.20
2022-07-25T09:39:15.132Z,1.00
2022-07-25T09:41:46.974Z,1.10
2022-07-25T09:44:23.269Z,1.70
2022-07-25T09:47:01.571Z,1.20
2022-07-25T09:49:47.486Z,1.30
2022-07-25T09:52:33.750Z,1.20
2022-07-25T09:55:06.717Z,3.70
2022-07-25T09:57:51.327Z,1.60
2022-07-25T10:00:29.619Z,0.90
2022-07-25T10:03:37.046Z,1.00
2022-07-25T10:06:20.720Z,0.80
2022-07-25T10:09:07.178Z,0.90
2022-07-25T10:12:07.849Z,1.40
2022-07-25T10:14:46.292Z,0.90
2022-07-25T10:17:23.982Z,0.80
2022-07-25T10:20:00.248Z,1.50
2022-07-25T10:22:56.750Z,1.10
2022-07-25T10:26:22.027Z,3.60
2022-07-25T10:28:56.836Z,1.40
2022-07-25T10:31:39.918Z,1.10
2022-07-25T10:34:14.339Z,1.40
2022-07-25T10:36:54.691Z,1.50
2022-07-25T10:39:41.041Z,1.20
2022-07-25T10:42:24.218Z,1.20
2022-07-25T10:45:01.254Z,3.80
2022-07-25T10:47:45.311Z,1.30
2022-07-25T10:50:54.805Z,1.50
2022-07-25T10:53:17.872Z,1.80
2022-07-25T10:56:13.856Z,1.70
2022-07-25T10:59:02.281Z,1.40
2022-07-25T11:01:38.479Z,0.90
2022-07-25T11:04:24.183Z,1.00
2022-07-25T11:06:55.009Z,1.60
2022-07-25T11:09:29.138Z,1.40
2022-07-25T11:12:19.112Z,1.20
2022-07-25T11:14:48.491Z,0.90
2022-07-25T11:17:34.529Z,1.20
2022-07-25T11:20:27.256Z,1.20
2022-07-25T11:23:05.773Z,1.00
2022-07-25T11:25:37.639Z,0.90
2022-07-25T11:28:08.964Z,0.80
2022-07-25T11:30:40.363Z,1.40
2022-07-25T11:33:21.533Z,2.80
2022-07-25T11:35:54.558Z,1.10
2022-07-25T11:38:33.344Z,1.00
2022-07-25T11:41:04.873Z,1.10
2022-07-25T11:43:36.149Z,0.70
2022-07-25T11:46:11.204Z,0.80
2022-07-25T11:48:44.475Z,0.80
2022-07-25T11:51:21.580Z,0.80
2022-07-25T11:53:53.569Z,0.50
2022-07-25T11:56:41.985Z,0.90
2022-07-25T11:59:16.612Z,0.70
2022-07-25T12:01:54.111Z,0.60
2022-07-25T12:04:24.371Z,0.80
2022-07-25T12:07:10.917Z,1.50
2022-07-25T12:09:41.921Z,0.50
2022-07-25T12:12:20.306Z,0.80
2022-07-25T12:14:51.619Z,1.10
2022-07-25T12:17:20.506Z,0.90
2022-07-25T12:19:50.619Z,0.80
2022-07-25T12:22:23.536Z,1.10
2022-07-25T12:24:59.734Z,1.20
2022-07-25T12:27:31.935Z,1.20
2022-07-25T12:30:01.981Z,0.80
2022-07-25T12:32:30.864Z,0.80
2022-07-25T12:35:01.371Z,0.80
2022-07-25T12:37:38.423Z,1.00
2022-07-25T12:40:16.731Z,1.10
2022-07-25T12:42:55.446Z,1.00
2022-07-25T12:45:50.291Z,1.00
2022-07-25T12:48:30.430Z,1.10
2022-07-25T12:51:01.690Z,0.90
2022-07-25T12:53:50.719Z,1.00
2022-07-25T12:58:53.368Z,1.20
2022-07-25T13:01:25.629Z,1.10
2022-07-25T13:04:00.637Z,2.00
2022-07-25T13:06:56.266Z,1.40
2022-07-25T13:09:28.214Z,1.10
2022-07-25T13:12:03.046Z,1.50
2022-07-25T13:14:41.447Z,1.50
2022-07-25T13:17:17.577Z,2.90
2022-07-25T13:19:52.314Z,1.70
2022-07-25T13:22:22.114Z,1.20
2022-07-25T13:24:56.779Z,2.40
2022-07-25T13:27:26.282Z,1.40
2022-07-25T13:29:56.448Z,1.50
2022-07-25T13:32:29.289Z,1.80
2022-07-25T13:35:02.054Z,1.40
2022-07-25T13:38:00.663Z,1.40
2022-07-25T13:40:37.605Z,1.90
2022-07-25T13:43:14.104Z,6.70
2022-07-25T13:45:48.407Z,3.70
2022-07-25T13:48:30.294Z,1.80
2022-07-25T13:51:01.622Z,1.60
2022-07-25T13:53:36.051Z,1.10
2022-07-25T13:56:07.875Z,1.00
2022-07-25T13:58:43.368Z,1.60
2022-07-25T14:01:13.251Z,1.40
2022-07-25T14:03:51.555Z,1.40
2022-07-25T14:06:23.112Z,1.00
2022-07-25T14:08:54.813Z,1.10
2022-07-25T14:11:34.022Z,1.70
2022-07-25T14:14:07.859Z,1.80
2022-07-25T14:16:38.069Z,1.60
2022-07-25T14:19:12.104Z,1.20
2022-07-25T14:21:41.106Z,1.80
2022-07-25T14:24:10.405Z,1.30
2022-07-25T14:26:40.524Z,1.40
2022-07-25T14:29:19.816Z,1.20
2022-07-25T14:31:49.943Z,1.50
2022-07-25T14:34:20.231Z,1.60
2022-07-25T14:36:49.120Z,1.20
2022-07-25T14:39:18.285Z,1.20
2022-07-25T14:41:48.289Z,1.40
2022-07-25T14:44:22.000Z,1.60
2022-07-25T14:46:51.779Z,1.50
2022-07-25T14:49:20.758Z,1.70
2022-07-25T14:51:50.887Z,1.30
2022-07-25T14:54:21.370Z,1.40
2022-07-25T14:56:55.518Z,1.10
2022-07-25T14:59:28.475Z,1.40
2022-07-25T15:01:57.460Z,1.50
2022-07-25T15:04:27.874Z,1.60
2022-07-25T15:07:03.476Z,1.10
2022-07-25T15:09:49.232Z,1.60
2022-07-25T15:12:23.151Z,1.30
2022-07-25T15:15:24.728Z,1.30
2022-07-25T15:17:57.479Z,1.60
2022-07-25T15:23:23.200Z,2.00
2022-07-25T15:26:15.237Z,1.90
2022-07-25T15:28:44.502Z,1.80
2022-07-25T15:31:13.572Z,1.30
2022-07-25T15:33:44.319Z,1.40
2022-07-25T15:36:24.541Z,1.40
2022-07-25T15:39:01.219Z,1.80
2022-07-25T15:44:09.546Z,1.20
2022-07-25T15:46:42.293Z,1.70
2022-07-25T15:49:25.939Z,2.10
2022-07-25T15:51:58.552Z,1.90
2022-07-25T15:54:32.157Z,1.70
2022-07-25T15:57:06.150Z,1.60
2022-07-25T15:59:38.973Z,1.30
2022-07-25T16:02:14.306Z,1.40
2022-07-25T16:04:53.942Z,1.90
2022-07-25T16:07:25.205Z,1.50
2022-07-25T16:09:57.116Z,1.40
2022-07-25T16:12:29.394Z,1.90
2022-07-25T16:15:23.901Z,1.90
2022-07-25T16:18:02.322Z,2.80
2022-07-25T16:20:35.488Z,1.90
2022-07-25T16:23:25.713Z,1.50
2022-07-25T16:26:10.102Z,1.30
2022-07-25T16:28:40.335Z,1.50
2022-07-25T16:31:15.300Z,1.60
2022-07-25T16:33:55.582Z,1.40
2022-07-25T16:36:25.574Z,1.70
2022-07-25T16:39:04.240Z,1.50
2022-07-25T16:41:47.946Z,1.40
2022-07-25T16:44:19.166Z,1.60
2022-07-25T16:46:49.215Z,1.80
2022-07-25T16:49:18.875Z,1.70
2022-07-25T16:51:54.541Z,1.60
2022-07-25T16:54:40.737Z,1.20
2022-07-25T16:57:10.015Z,1.50
2022-07-25T16:59:46.475Z,1.10
2022-07-25T17:02:29.668Z,1.70
2022-07-25T17:05:06.634Z,1.60
2022-07-25T17:07:41.429Z,1.30
2022-07-25T17:10:13.907Z,1.30
2022-07-25T17:12:43.889Z,1.70
2022-07-25T17:15:13.339Z,1.80
2022-07-25T17:17:47.305Z,1.60
2022-07-25T17:20:16.309Z,1.40
2022-07-25T17:22:46.210Z,1.70
2022-07-25T17:25:15.502Z,1.90
2022-07-25T17:27:49.410Z,1.40
2022-07-25T17:30:36.979Z,2.00
2022-07-25T17:33:07.131Z,1.60
2022-07-25T17:35:41.902Z,1.60
2022-07-25T17:38:34.929Z,2.10
2022-07-25T17:41:05.587Z,1.90
2022-07-25T17:43:50.332Z,1.90
2022-07-25T17:46:34.431Z,1.50
2022-07-25T17:49:08.453Z,1.80
2022-07-25T17:51:49.231Z,1.70
2022-07-25T17:54:18.323Z,2.20
2022-07-25T17:56:47.709Z,1.60
2022-07-25T17:59:28.405Z,2.00
2022-07-25T18:02:02.894Z,1.60
2022-07-25T18:04:32.491Z,1.90
2022-07-25T18:07:01.671Z,1.30
2022-07-25T18:09:30.834Z,1.70
2022-07-25T18:12:09.373Z,3.50
2022-07-25T18:14:44.069Z,2.40
2022-07-25T18:17:20.392Z,1.90
2022-07-25T18:22:33.293Z,1.80
2022-07-25T18:25:14.286Z,2.90
2022-07-25T18:27:50.138Z,2.90
2022-07-25T18:30:20.421Z,2.60
2022-07-25T18:32:51.815Z,2.70
2022-07-25T18:35:21.117Z,2.40
2022-07-25T18:37:50.179Z,2.80
2022-07-25T18:40:20.889Z,2.60
2022-07-25T18:42:52.815Z,2.10
2022-07-25T18:45:24.255Z,3.00
2022-07-25T18:47:53.998Z,2.50
2022-07-25T18:50:31.596Z,2.80
2022-07-25T18:53:02.308Z,3.10
2022-07-25T18:55:31.353Z,2.80
2022-07-25T18:58:00.528Z,2.80
2022-07-25T19:00:30.011Z,3.50
2022-07-25T19:03:01.369Z,3.40
2022-07-25T19:06:03.391Z,2.80
2022-07-25T19:08:40.248Z,3.20
2022-07-25T19:11:20.678Z,3.80
2022-07-25T19:13:59.663Z,4.60
2022-07-25T19:16:31.576Z,5.80
2022-07-25T19:19:13.366Z,3.80
2022-07-25T19:21:51.108Z,3.40
2022-07-25T19:24:25.611Z,3.90
2022-07-25T19:26:57.472Z,3.80
2022-07-25T19:29:32.605Z,3.60
2022-07-25T19:32:11.560Z,3.20
2022-07-25T19:34:44.476Z,2.80
2022-07-25T19:37:14.051Z,3.00
2022-07-25T19:39:51.163Z,2.90
2022-07-25T19:42:30.259Z,3.60
2022-07-25T19:45:04.208Z,3.20
2022-07-25T19:47:37.340Z,3.50
2022-07-25T19:50:07.374Z,13.40
2022-07-25T19:52:44.496Z,3.80
2022-07-25T19:55:34.471Z,3.20
2022-07-25T19:58:04.450Z,3.60
2022-07-25T20:00:44.091Z,3.80
2022-07-25T20:03:13.354Z,3.10
2022-07-25T20:05:45.382Z,3.30
2022-07-25T20:08:16.487Z,3.70
2022-07-25T20:10:51.562Z,3.40
2022-07-25T20:13:29.888Z,3.60
2022-07-25T20:16:00.011Z,3.60
2022-07-25T20:18:32.167Z,3.50
2022-07-25T20:21:08.342Z,4.10
2022-07-25T20:23:43.516Z,4.20
2022-07-25T20:26:26.444Z,3.30
2022-07-25T20:28:55.977Z,3.50
2022-07-25T20:31:42.809Z,3.70
2022-07-25T20:34:13.651Z,3.00
2022-07-25T20:36:43.978Z,3.60
2022-07-25T20:39:13.990Z,3.10
2022-07-25T20:41:47.160Z,3.70
2022-07-25T20:44:16.067Z,3.30
2022-07-25T20:46:47.899Z,3.30
2022-07-25T20:49:17.216Z,3.50
2022-07-25T20:51:54.222Z,4.20
2022-07-25T20:54:25.452Z,8.00
2022-07-25T20:56:54.518Z,5.70
2022-07-25T20:59:26.126Z,4.20
2022-07-25T21:01:55.444Z,3.50
2022-07-25T21:04:24.386Z,3.10
2022-07-25T21:06:56.633Z,3.40
2022-07-25T21:09:32.374Z,3.20
2022-07-25T21:12:02.340Z,3.30
2022-07-25T21:14:31.466Z,2.90
2022-07-25T21:17:06.955Z,3.50
2022-07-25T21:19:37.605Z,5.40
2022-07-25T21:22:14.372Z,2.80
2022-07-25T21:24:54.097Z,2.80
2022-07-25T21:27:37.968Z,2.90
2022-07-25T21:30:21.209Z,2.70
2022-07-25T21:32:57.401Z,2.90
2022-07-25T21:35:49.088Z,3.40
2022-07-25T21:38:27.535Z,3.10
2022-07-25T21:40:59.573Z,2.50
2022-07-25T21:43:31.641Z,3.00
2022-07-25T21:46:00.840Z,3.50
2022-07-25T21:48:50.914Z,2.50
2022-07-25T21:51:25.130Z,2.40
2022-07-25T21:54:06.206Z,2.90
2022-07-25T21:56:37.991Z,3.00
2022-07-25T21:59:07.457Z,2.70
2022-07-25T22:01:37.004Z,2.50
2022-07-25T22:04:06.918Z,2.50
2022-07-25T22:06:36.299Z,2.30
2022-07-25T22:09:06.807Z,2.70
2022-07-25T22:11:42.869Z,2.80
2022-07-25T22:14:17.885Z,2.20
2022-07-25T22:16:47.450Z,3.10
2022-07-25T22:19:22.285Z,2.90
2022-07-25T22:21:56.590Z,3.10
2022-07-25T22:24:30.811Z,5.20
2022-07-25T22:27:04.765Z,5.60
2022-07-25T22:29:33.844Z,2.90
2022-07-25T22:32:04.884Z,2.60
2022-07-25T22:34:34.159Z,2.60
2022-07-25T22:37:03.544Z,3.40
2022-07-25T22:39:33.323Z,2.70
2022-07-25T22:42:02.591Z,3.00
2022-07-25T22:44:33.216Z,2.30
2022-07-25T22:47:02.130Z,2.30
2022-07-25T22:49:35.434Z,2.60
2022-07-25T22:52:09.903Z,2.30
2022-07-25T22:54:43.790Z,3.30
2022-07-25T22:57:26.588Z,2.40
2022-07-25T22:59:55.531Z,2.90
2022-07-25T23:02:30.474Z,2.60
2022-07-25T23:04:59.568Z,2.60
2022-07-25T23:07:28.667Z,2.50
2022-07-25T23:09:59.497Z,2.20
2022-07-25T23:12:28.611Z,3.20
2022-07-25T23:15:08.927Z,2.60
2022-07-25T23:17:42.923Z,2.40
2022-07-25T23:20:17.143Z,2.60
2022-07-25T23:22:46.523Z,3.00
2022-07-25T23:25:27.384Z,3.10
2022-07-25T23:27:56.867Z,2.50
2022-07-25T23:30:40.472Z,3.30
2022-07-25T23:33:15.858Z,3.20
2022-07-25T23:35:56.941Z,2.70
2022-07-25T23:38:26.150Z,2.70
2022-07-25T23:41:02.099Z,3.40
2022-07-25T23:43:54.965Z,2.70
2022-07-25T23:46:29.383Z,2.60
2022-07-25T23:49:02.523Z,2.50
2022-07-25T23:51:40.050Z,2.70
2022-07-25T23:56:57.846Z,3.10
2022-07-25T23:59:29.163Z,3.40
